createdAt,value
2023-06-23T00:00:21.910Z,100326.53
2023-06-23T00:03:09.571Z,100336.56
2023-06-23T00:05:39.319Z,100328.78
2023-06-23T00:08:06.884Z,100329.47
2023-06-23T00:10:34.720Z,100326.25
2023-06-23T00:13:03.969Z,100316.50
2023-06-23T00:15:32.125Z,100330.16
2023-06-23T00:18:01.733Z,100340.50
2023-06-23T00:20:29.661Z,100350.16
2023-06-23T00:22:57.127Z,100348.22
2023-06-23T00:25:24.990Z,100350.75
2023-06-23T00:27:52.532Z,100345.84
2023-06-23T00:30:20.318Z,100348.03
2023-06-23T00:32:47.876Z,100347.09
2023-06-23T00:35:15.840Z,100332.91
2023-06-23T00:37:44.882Z,100339.38
2023-06-23T00:40:13.034Z,100341.50
2023-06-23T00:42:54.116Z,100346.19
2023-06-23T00:45:25.515Z,100351.91
2023-06-23T00:47:54.087Z,100356.03
2023-06-23T00:50:24.739Z,100350.50
2023-06-23T00:52:54.322Z,100343.44
2023-06-23T00:55:24.474Z,100340.38
2023-06-23T00:57:52.754Z,100325.13
2023-06-23T01:00:21.179Z,100332.41
2023-06-23T01:03:03.821Z,100350.06
2023-06-23T01:05:38.766Z,100327.06
2023-06-23T01:08:32.461Z,100351.25
2023-06-23T01:11:10.820Z,100319.53
2023-06-23T01:14:00.341Z,100331.66
2023-06-23T01:16:35.688Z,100321.91
2023-06-23T01:19:34.306Z,100311.03
2023-06-23T01:22:09.926Z,100306.72
2023-06-23T01:24:58.864Z,100297.56
2023-06-23T01:27:37.455Z,100295.19
2023-06-23T01:30:08.992Z,100298.53
2023-06-23T01:32:47.071Z,100290.50
2023-06-23T01:35:22.880Z,100291.84
2023-06-23T01:37:54.549Z,100294.56
2023-06-23T01:40:24.765Z,100292.41
2023-06-23T01:43:01.243Z,100295.31
2023-06-23T01:45:29.089Z,100301.59
2023-06-23T01:48:02.630Z,100285.41
2023-06-23T01:50:32.536Z,100277.34
2023-06-23T01:53:03.042Z,100290.94
2023-06-23T01:55:32.960Z,100292.63
2023-06-23T01:58:03.162Z,100296.66
2023-06-23T02:00:32.102Z,100283.44
2023-06-23T02:03:03.106Z,100297.94
2023-06-23T02:05:33.680Z,100295.69
2023-06-23T02:08:03.307Z,100295.78
2023-06-23T02:10:31.885Z,100288.69
2023-06-23T02:13:01.734Z,100292.69
2023-06-23T02:15:30.959Z,100283.84
2023-06-23T02:18:01.275Z,100290.50
2023-06-23T02:20:31.836Z,100295.09
2023-06-23T02:23:01.757Z,100292.72
2023-06-23T02:25:31.070Z,100295.59
2023-06-23T02:28:01.687Z,100304.19
2023-06-23T02:30:30.875Z,100312.47
2023-06-23T02:32:58.774Z,100296.41
2023-06-23T02:35:26.591Z,100310.53
2023-06-23T02:38:00.080Z,100298.44
2023-06-23T02:40:28.952Z,100314.06
2023-06-23T02:43:11.641Z,100291.75
2023-06-23T02:45:43.751Z,100298.91
2023-06-23T02:48:19.871Z,100296.44
2023-06-23T02:50:49.681Z,100306.28
2023-06-23T02:53:28.308Z,100298.09
2023-06-23T02:56:08.347Z,100300.09
2023-06-23T02:58:37.573Z,100302.09
2023-06-23T03:01:10.389Z,100305.34
2023-06-23T03:03:40.481Z,100307.00
2023-06-23T03:06:08.089Z,100302.91
2023-06-23T03:08:36.498Z,100300.34
2023-06-23T03:11:04.077Z,100296.13
2023-06-23T03:13:31.879Z,100291.69
2023-06-23T03:16:03.455Z,100286.94
2023-06-23T03:18:35.588Z,100292.28
2023-06-23T03:21:06.290Z,100291.94
2023-06-23T03:23:39.154Z,100282.78
2023-06-23T03:26:10.101Z,100258.88
2023-06-23T03:28:42.114Z,100275.91
2023-06-23T03:31:13.955Z,100253.78
2023-06-23T03:33:44.470Z,100260.47
2023-06-23T03:36:20.212Z,100243.75
2023-06-23T03:39:22.295Z,100243.03
2023-06-23T03:41:51.322Z,100241.78
2023-06-23T03:44:27.901Z,100250.19
2023-06-23T03:47:00.616Z,100246.31
2023-06-23T03:49:34.525Z,100249.97
2023-06-23T03:52:05.714Z,100258.34
2023-06-23T03:54:34.598Z,100256.25
2023-06-23T03:57:05.958Z,100260.72
2023-06-23T03:59:35.617Z,100260.94
2023-06-23T04:02:04.232Z,100255.44
2023-06-23T04:04:33.867Z,100260.13
2023-06-23T04:07:02.826Z,100255.16
2023-06-23T04:09:33.348Z,100256.63
2023-06-23T04:12:02.440Z,100253.19
2023-06-23T04:14:32.312Z,100252.41
2023-06-23T04:17:02.319Z,100252.41
2023-06-23T04:19:32.195Z,100243.50
2023-06-23T04:22:01.659Z,100237.94
2023-06-23T04:24:29.864Z,100229.19
2023-06-23T04:26:58.905Z,100239.63
2023-06-23T04:29:28.147Z,100228.72
2023-06-23T04:31:56.782Z,100230.09
2023-06-23T04:34:24.933Z,100223.53
2023-06-23T04:37:02.489Z,100229.06
2023-06-23T04:39:37.837Z,100223.94
2023-06-23T04:42:09.338Z,100223.66
2023-06-23T04:44:49.849Z,100226.00
2023-06-23T04:47:21.623Z,100220.06
2023-06-23T04:50:02.180Z,100218.97
2023-06-23T04:52:32.620Z,100205.38
2023-06-23T04:55:04.184Z,100206.94
2023-06-23T04:57:35.694Z,100211.56
2023-06-23T05:00:08.700Z,100212.59
2023-06-23T05:02:38.515Z,100213.44
2023-06-23T05:05:08.650Z,100198.09
2023-06-23T05:07:38.807Z,100227.69
2023-06-23T05:10:08.013Z,100208.19
2023-06-23T05:12:39.145Z,100212.03
2023-06-23T05:15:09.449Z,100220.00
2023-06-23T05:17:39.972Z,100221.63
2023-06-23T05:20:11.167Z,100227.47
2023-06-23T05:22:40.635Z,100230.81
2023-06-23T05:25:10.233Z,100235.59
2023-06-23T05:27:42.202Z,100220.97
2023-06-23T05:30:11.720Z,100238.22
2023-06-23T05:32:41.896Z,100232.53
2023-06-23T05:35:11.918Z,100222.00
2023-06-23T05:37:42.092Z,100225.91
2023-06-23T05:40:13.902Z,100227.94
2023-06-23T05:42:41.969Z,100236.53
2023-06-23T05:45:11.522Z,100232.75
2023-06-23T05:48:08.187Z,100230.88
2023-06-23T05:50:38.764Z,100231.69
2023-06-23T05:53:13.657Z,100234.22
2023-06-23T05:55:45.059Z,100231.09
2023-06-23T05:58:14.907Z,100222.88
2023-06-23T06:00:54.969Z,100221.44
2023-06-23T06:03:27.567Z,100216.34
2023-06-23T06:05:57.936Z,100208.19
2023-06-23T06:08:27.780Z,100192.63
2023-06-23T06:10:58.142Z,100190.53
2023-06-23T06:13:26.051Z,100201.44
2023-06-23T06:15:56.533Z,100183.16
2023-06-23T06:18:25.944Z,100186.66
2023-06-23T06:20:56.059Z,100188.78
2023-06-23T06:23:26.387Z,100190.34
2023-06-23T06:25:56.221Z,100183.84
2023-06-23T06:28:26.604Z,100184.22
2023-06-23T06:30:57.811Z,100176.13
2023-06-23T06:33:28.344Z,100179.16
2023-06-23T06:35:58.722Z,100175.97
2023-06-23T06:38:30.555Z,100188.31
2023-06-23T06:40:59.333Z,100179.06
2023-06-23T06:43:26.926Z,100175.34
2023-06-23T06:45:55.637Z,100164.38
2023-06-23T06:48:27.174Z,100172.47
2023-06-23T06:50:56.755Z,100178.00
2023-06-23T06:53:26.264Z,100179.00
2023-06-23T06:55:54.955Z,100178.38
2023-06-23T06:58:23.092Z,100171.84
2023-06-23T07:00:51.033Z,100170.19
2023-06-23T07:03:18.838Z,100163.41
2023-06-23T07:05:46.847Z,100177.22
2023-06-23T07:08:14.455Z,100177.53
2023-06-23T07:10:42.485Z,100185.06
2023-06-23T07:13:10.914Z,100184.19
2023-06-23T07:15:38.826Z,100166.75
2023-06-23T07:18:06.495Z,100182.00
2023-06-23T07:20:34.433Z,100186.47
2023-06-23T07:23:02.441Z,100185.19
2023-06-23T07:25:30.181Z,100182.75
2023-06-23T07:27:57.685Z,100186.25
2023-06-23T07:30:25.699Z,100178.59
2023-06-23T07:32:53.609Z,100182.09
2023-06-23T07:35:21.549Z,100184.22
2023-06-23T07:37:49.081Z,100203.00
2023-06-23T07:40:17.080Z,100189.50
2023-06-23T07:42:44.653Z,100205.06
2023-06-23T07:45:12.547Z,100210.88
2023-06-23T07:47:40.304Z,100213.28
2023-06-23T07:50:09.063Z,100230.13
2023-06-23T07:52:36.705Z,100231.19
2023-06-23T07:55:05.093Z,100229.44
2023-06-23T07:57:32.673Z,100242.69
2023-06-23T08:00:00.529Z,100233.63
2023-06-23T08:02:28.211Z,100243.03
2023-06-23T08:04:56.152Z,100247.34
2023-06-23T08:07:23.737Z,100253.91
2023-06-23T08:09:51.545Z,100261.97
2023-06-23T08:12:19.007Z,100263.16
2023-06-23T08:14:47.014Z,100266.59
2023-06-23T08:17:14.626Z,100271.31
2023-06-23T08:19:43.051Z,100279.41
2023-06-23T08:22:10.887Z,100285.09
2023-06-23T08:24:38.752Z,100289.84
2023-06-23T08:27:07.898Z,100294.31
2023-06-23T08:29:38.514Z,100296.22
2023-06-23T08:32:07.197Z,100295.94
2023-06-23T08:34:34.989Z,100311.88
2023-06-23T08:37:02.510Z,100324.06
2023-06-23T08:39:30.281Z,100306.97
2023-06-23T08:42:00.167Z,100314.03
2023-06-23T08:44:33.885Z,100324.06
2023-06-23T08:47:07.160Z,100330.06
2023-06-23T08:49:39.856Z,100343.97
2023-06-23T08:52:08.271Z,100330.56
2023-06-23T08:54:37.070Z,100333.59
2023-06-23T08:57:05.656Z,100337.75
2023-06-23T08:59:33.436Z,100331.88
2023-06-23T09:02:01.004Z,100349.63
2023-06-23T09:04:28.959Z,100369.63
2023-06-23T09:06:56.864Z,100357.50
2023-06-23T09:09:24.731Z,100371.34
2023-06-23T09:11:53.877Z,100377.25
2023-06-23T09:14:23.182Z,100373.69
2023-06-23T09:16:55.283Z,100371.44
2023-06-23T09:19:24.726Z,100374.56
2023-06-23T09:21:53.194Z,100370.53
2023-06-23T09:24:21.174Z,100368.84
2023-06-23T09:26:54.021Z,100361.72
2023-06-23T09:29:25.055Z,100373.47
2023-06-23T09:31:54.149Z,100361.72
2023-06-23T09:34:27.436Z,100375.16
2023-06-23T09:37:06.256Z,100375.94
2023-06-23T09:39:38.544Z,100370.91
2023-06-23T09:42:13.430Z,100374.75
2023-06-23T09:44:43.956Z,100378.84
2023-06-23T09:47:11.469Z,100380.41
2023-06-23T09:49:40.910Z,100381.31
2023-06-23T09:52:10.646Z,100386.69
2023-06-23T09:54:41.014Z,100379.25
2023-06-23T09:57:16.766Z,100389.84
2023-06-23T09:59:47.318Z,100379.56
2023-06-23T10:02:28.182Z,100371.78
2023-06-23T10:05:04.729Z,100387.97
2023-06-23T10:07:34.832Z,100380.19
2023-06-23T10:12:41.721Z,100363.56
2023-06-23T10:15:11.456Z,100365.47
2023-06-23T10:17:39.633Z,100354.75
2023-06-23T10:20:08.423Z,100363.84
2023-06-23T10:22:38.264Z,100363.59
2023-06-23T10:25:10.613Z,100358.19
2023-06-23T10:27:41.734Z,100356.97
2023-06-23T10:30:11.930Z,100363.03
2023-06-23T10:32:51.418Z,100356.66
2023-06-23T10:35:23.404Z,100360.47
2023-06-23T10:38:08.086Z,100362.75
2023-06-23T10:40:40.778Z,100376.63
2023-06-23T10:43:08.601Z,100364.19
2023-06-23T10:45:37.008Z,100372.28
2023-06-23T10:48:05.190Z,100366.19
2023-06-23T10:50:33.279Z,100373.38
2023-06-23T10:53:33.866Z,100373.22
2023-06-23T10:56:08.357Z,100361.28
2023-06-23T10:58:51.644Z,100371.72
2023-06-23T11:01:19.602Z,100360.13
2023-06-23T11:03:52.486Z,100368.16
2023-06-23T11:06:35.862Z,100355.13
2023-06-23T11:09:03.663Z,100362.56
2023-06-23T11:11:35.562Z,100355.94
2023-06-23T11:14:03.555Z,100371.88
2023-06-23T11:16:35.974Z,100354.28
2023-06-23T11:19:03.970Z,100361.91
2023-06-23T11:21:35.351Z,100358.66
2023-06-23T11:24:13.213Z,100361.91
2023-06-23T11:27:04.404Z,100360.59
2023-06-23T11:29:33.396Z,100364.53
2023-06-23T11:32:06.313Z,100362.75
2023-06-23T11:34:54.231Z,100367.91
2023-06-23T11:37:23.643Z,100359.09
2023-06-23T11:39:54.721Z,100366.19
2023-06-23T11:42:22.793Z,100365.38
2023-06-23T11:44:50.748Z,100346.47
2023-06-23T11:47:30.815Z,100370.50
2023-06-23T11:50:04.949Z,100362.88
2023-06-23T11:52:33.099Z,100362.88
2023-06-23T11:55:00.911Z,100361.78
2023-06-23T11:57:29.018Z,100345.06
2023-06-23T11:59:56.645Z,100352.34
2023-06-23T12:02:24.626Z,100346.59
2023-06-23T12:04:52.261Z,100344.56
2023-06-23T12:07:21.027Z,100350.34
2023-06-23T12:09:48.647Z,100344.16
2023-06-23T12:12:17.561Z,100326.22
2023-06-23T12:14:45.712Z,100321.41
2023-06-23T12:17:14.605Z,100348.22
2023-06-23T12:19:45.937Z,100332.59
2023-06-23T12:22:16.932Z,100334.44
2023-06-23T12:24:45.146Z,100329.22
2023-06-23T12:27:13.278Z,100327.31
2023-06-23T12:29:40.770Z,100314.88
2023-06-23T12:32:09.383Z,100331.22
2023-06-23T12:34:43.102Z,100316.53
2023-06-23T12:37:16.982Z,100323.47
2023-06-23T12:39:56.242Z,100327.16
2023-06-23T12:42:24.386Z,100318.66
2023-06-23T12:44:52.296Z,100326.13
2023-06-23T12:47:20.615Z,100329.94
2023-06-23T12:49:49.318Z,100321.91
2023-06-23T12:52:17.305Z,100333.16
2023-06-23T12:54:45.217Z,100332.94
2023-06-23T12:57:13.444Z,100329.81
2023-06-23T12:59:41.456Z,100319.41
2023-06-23T13:02:10.087Z,100301.69
2023-06-23T13:04:37.761Z,100295.44
2023-06-23T13:07:06.610Z,100308.44
2023-06-23T13:09:34.204Z,100302.41
2023-06-23T13:12:01.969Z,100297.97
2023-06-23T13:14:29.567Z,100296.22
2023-06-23T13:16:57.431Z,100298.19
2023-06-23T13:19:24.900Z,100295.50
2023-06-23T13:21:53.145Z,100296.66
2023-06-23T13:24:20.752Z,100303.06
2023-06-23T13:26:49.557Z,100295.72
2023-06-23T13:29:18.310Z,100304.34
2023-06-23T13:31:46.476Z,100295.75
2023-06-23T13:34:14.249Z,100301.38
2023-06-23T13:36:42.226Z,100292.44
2023-06-23T13:39:09.696Z,100307.09
2023-06-23T13:41:37.747Z,100306.88
2023-06-23T13:44:05.332Z,100304.00
2023-06-23T13:46:33.925Z,100305.94
2023-06-23T13:49:01.440Z,100305.50
2023-06-23T13:51:30.164Z,100314.19
2023-06-23T13:53:57.894Z,100319.13
2023-06-23T13:56:25.906Z,100316.56
2023-06-23T13:58:53.411Z,100323.38
2023-06-23T14:01:21.323Z,100310.16
2023-06-23T14:03:53.057Z,100303.88
2023-06-23T14:06:21.214Z,100301.34
2023-06-23T14:08:49.836Z,100297.00
2023-06-23T14:11:17.696Z,100294.34
2023-06-23T14:13:45.349Z,100288.13
2023-06-23T14:16:16.896Z,100298.75
2023-06-23T14:18:45.187Z,100298.06
2023-06-23T14:21:14.089Z,100292.31
2023-06-23T14:23:41.606Z,100291.84
2023-06-23T14:26:09.696Z,100282.88
2023-06-23T14:28:37.252Z,100284.97
2023-06-23T14:31:05.090Z,100292.38
2023-06-23T14:33:32.786Z,100289.69
2023-06-23T14:36:00.764Z,100302.78
2023-06-23T14:38:28.998Z,100300.94
2023-06-23T14:40:57.905Z,100278.25
2023-06-23T14:43:25.587Z,100293.34
2023-06-23T14:45:53.954Z,100294.22
2023-06-23T14:48:22.113Z,100293.16
2023-06-23T14:50:50.337Z,100291.47
2023-06-23T14:53:18.050Z,100302.00
2023-06-23T14:55:45.806Z,100310.72
2023-06-23T14:58:13.262Z,100298.75
2023-06-23T15:00:41.072Z,100303.84
2023-06-23T15:03:10.955Z,100308.53
2023-06-23T15:05:38.982Z,100295.34
2023-06-23T15:08:06.572Z,100306.47
2023-06-23T15:10:34.924Z,100298.59
2023-06-23T15:13:02.623Z,100292.31
2023-06-23T15:15:30.828Z,100305.72
2023-06-23T15:17:58.914Z,100312.03
2023-06-23T15:20:27.535Z,100315.03
2023-06-23T15:22:55.708Z,100318.13
2023-06-23T15:25:23.632Z,100328.41
2023-06-23T15:27:51.165Z,100318.63
2023-06-23T15:30:19.180Z,100335.56
2023-06-23T15:32:47.495Z,100332.22
2023-06-23T15:35:15.700Z,100337.66
2023-06-23T15:37:43.627Z,100328.78
2023-06-23T15:40:13.102Z,100321.19
2023-06-23T15:42:40.856Z,100317.75
2023-06-23T15:45:09.298Z,100338.56
2023-06-23T15:47:37.008Z,100333.53
2023-06-23T15:50:05.372Z,100335.69
2023-06-23T15:52:33.077Z,100333.09
2023-06-23T15:55:00.953Z,100340.09
2023-06-23T15:57:28.603Z,100345.94
2023-06-23T15:59:56.483Z,100344.19
2023-06-23T16:02:26.866Z,100352.72
2023-06-23T16:04:55.112Z,100345.88
2023-06-23T16:07:23.139Z,100355.88
2023-06-23T16:09:51.220Z,100347.72
2023-06-23T16:12:18.723Z,100357.75
2023-06-23T16:14:46.586Z,100359.59
2023-06-23T16:17:14.212Z,100380.81
2023-06-23T16:19:42.077Z,100361.44
2023-06-23T16:22:09.633Z,100383.22
2023-06-23T16:24:37.493Z,100381.72
2023-06-23T16:27:05.165Z,100378.84
2023-06-23T16:29:32.956Z,100382.69
2023-06-23T16:32:00.629Z,100386.28
2023-06-23T16:34:28.536Z,100395.94
2023-06-23T16:36:56.108Z,100402.66
2023-06-23T16:39:23.942Z,100408.91
2023-06-23T16:41:53.515Z,100399.59
2023-06-23T16:44:21.348Z,100398.13
2023-06-23T16:46:49.039Z,100393.56
2023-06-23T16:49:18.971Z,100402.34
2023-06-23T16:51:46.997Z,100408.16
2023-06-23T16:54:14.949Z,100399.88
2023-06-23T16:56:42.499Z,100394.38
2023-06-23T16:59:10.449Z,100397.47
2023-06-23T17:01:38.236Z,100381.00
2023-06-23T17:04:06.432Z,100397.53
2023-06-23T17:06:34.388Z,100396.91
2023-06-23T17:09:02.321Z,100390.47
2023-06-23T17:11:29.822Z,100388.31
2023-06-23T17:13:57.665Z,100388.81
2023-06-23T17:16:26.426Z,100394.97
2023-06-23T17:18:55.105Z,100395.09
2023-06-23T17:21:22.661Z,100387.81
2023-06-23T17:23:50.704Z,100392.72
2023-06-23T17:26:18.218Z,100390.13
2023-06-23T17:28:46.064Z,100396.13
2023-06-23T17:31:13.959Z,100377.50
2023-06-23T17:33:43.009Z,100387.91
2023-06-23T17:36:10.496Z,100384.75
2023-06-23T17:38:40.339Z,100399.41
2023-06-23T17:41:08.146Z,100386.91
2023-06-23T17:43:36.017Z,100373.47
2023-06-23T17:46:04.945Z,100382.63
2023-06-23T17:48:33.201Z,100392.69
2023-06-23T17:51:00.729Z,100399.22
2023-06-23T17:53:28.620Z,100399.28
2023-06-23T17:55:56.595Z,100400.25
2023-06-23T17:58:25.403Z,100400.19
2023-06-23T18:00:53.011Z,100405.94
2023-06-23T18:03:21.287Z,100414.19
2023-06-23T18:05:49.433Z,100413.28
2023-06-23T18:08:17.799Z,100397.13
2023-06-23T18:10:47.350Z,100405.13
2023-06-23T18:13:15.293Z,100400.19
2023-06-23T18:15:42.823Z,100415.78
2023-06-23T18:18:12.917Z,100406.97
2023-06-23T18:20:40.576Z,100414.97
2023-06-23T18:23:09.395Z,100420.00
2023-06-23T18:25:36.933Z,100406.13
2023-06-23T18:28:04.902Z,100405.72
2023-06-23T18:30:32.890Z,100411.59
2023-06-23T18:33:01.169Z,100413.28
2023-06-23T18:35:28.795Z,100399.41
2023-06-23T18:37:56.727Z,100402.59
2023-06-23T18:40:24.436Z,100407.41
2023-06-23T18:42:52.366Z,100389.75
2023-06-23T18:45:21.450Z,100396.50
2023-06-23T18:47:49.567Z,100405.25
2023-06-23T18:50:17.135Z,100399.78
2023-06-23T18:52:44.918Z,100405.19
2023-06-23T18:55:12.548Z,100408.53
2023-06-23T18:57:42.397Z,100418.19
2023-06-23T19:00:10.578Z,100414.38
2023-06-23T19:02:38.562Z,100400.66
2023-06-23T19:05:06.509Z,100414.31
2023-06-23T19:07:34.117Z,100426.84
2023-06-23T19:10:02.383Z,100401.56
2023-06-23T19:12:30.314Z,100425.06
2023-06-23T19:14:58.386Z,100420.19
2023-06-23T19:17:26.504Z,100412.13
2023-06-23T19:19:54.509Z,100413.09
2023-06-23T19:22:22.142Z,100418.16
2023-06-23T19:24:50.133Z,100427.59
2023-06-23T19:27:17.624Z,100406.75
2023-06-23T19:29:45.523Z,100404.47
2023-06-23T19:32:14.037Z,100402.06
2023-06-23T19:34:41.880Z,100408.13
2023-06-23T19:37:10.478Z,100398.56
2023-06-23T19:39:47.346Z,100408.91
2023-06-23T19:42:27.004Z,100402.28
2023-06-23T19:44:54.810Z,100407.28
2023-06-23T19:47:23.560Z,100392.28
2023-06-23T19:49:51.488Z,100404.84
2023-06-23T19:52:19.100Z,100398.94
2023-06-23T19:54:46.886Z,100406.19
2023-06-23T19:57:14.496Z,100388.69
2023-06-23T19:59:42.358Z,100400.22
2023-06-23T20:02:10.205Z,100399.94
2023-06-23T20:04:38.102Z,100390.28
2023-06-23T20:07:06.731Z,100399.03
2023-06-23T20:09:34.811Z,100400.81
2023-06-23T20:12:02.288Z,100415.22
2023-06-23T20:14:30.463Z,100399.06
2023-06-23T20:16:58.010Z,100414.06
2023-06-23T20:19:26.790Z,100425.03
2023-06-23T20:21:54.321Z,100422.91
2023-06-23T20:24:22.267Z,100430.66
2023-06-23T20:26:49.980Z,100427.28
2023-06-23T20:29:19.794Z,100436.41
2023-06-23T20:31:47.514Z,100444.22
2023-06-23T20:34:15.458Z,100444.91
2023-06-23T20:36:43.027Z,100460.44
2023-06-23T20:39:11.247Z,100460.53
2023-06-23T20:41:38.807Z,100453.28
2023-06-23T20:44:06.722Z,100465.88
2023-06-23T20:46:34.271Z,100467.19
2023-06-23T20:49:02.232Z,100461.38
2023-06-23T20:51:30.773Z,100467.28
2023-06-23T20:53:58.699Z,100458.69
2023-06-23T20:56:26.203Z,100469.13
2023-06-23T20:58:54.215Z,100463.16
2023-06-23T21:01:21.799Z,100465.09
2023-06-23T21:03:49.712Z,100477.66
2023-06-23T21:06:17.342Z,100459.19
2023-06-23T21:08:45.748Z,100464.38
2023-06-23T21:11:13.323Z,100476.47
2023-06-23T21:13:41.272Z,100470.50
2023-06-23T21:16:09.007Z,100478.31
2023-06-23T21:18:37.930Z,100475.78
2023-06-23T21:21:05.728Z,100487.03
2023-06-23T21:23:33.529Z,100479.88
2023-06-23T21:26:01.071Z,100483.97
2023-06-23T21:28:29.418Z,100476.41
2023-06-23T21:30:57.049Z,100479.50
2023-06-23T21:33:24.819Z,100473.25
2023-06-23T21:35:53.742Z,100488.88
2023-06-23T21:38:21.728Z,100492.56
2023-06-23T21:40:49.306Z,100491.25
2023-06-23T21:43:17.107Z,100490.66
2023-06-23T21:45:44.684Z,100486.44
2023-06-23T21:48:12.545Z,100472.53
2023-06-23T21:50:40.164Z,100475.94
2023-06-23T21:53:07.993Z,100479.19
2023-06-23T21:55:36.666Z,100473.34
2023-06-23T21:58:08.027Z,100478.72
2023-06-23T22:00:35.996Z,100464.72
2023-06-23T22:03:05.251Z,100466.28
2023-06-23T22:05:33.120Z,100477.81
2023-06-23T22:08:00.935Z,100477.97
2023-06-23T22:10:28.652Z,100485.94
2023-06-23T22:12:59.100Z,100478.59
2023-06-23T22:15:26.646Z,100475.84
2023-06-23T22:17:54.564Z,100485.50
2023-06-23T22:20:23.211Z,100485.59
2023-06-23T22:22:50.982Z,100475.25
2023-06-23T22:25:18.658Z,100478.97
2023-06-23T22:27:46.525Z,100488.41
2023-06-23T22:30:14.180Z,100485.91
2023-06-23T22:32:42.173Z,100485.28
2023-06-23T22:35:09.914Z,100497.09
2023-06-23T22:37:38.272Z,100486.19
2023-06-23T22:40:06.561Z,100495.19
2023-06-23T22:42:34.406Z,100499.66
2023-06-23T22:45:02.786Z,100498.84
2023-06-23T22:47:33.276Z,100505.06
2023-06-23T22:50:00.920Z,100499.91
2023-06-23T22:52:31.351Z,100496.66
2023-06-23T22:54:59.070Z,100489.09
2023-06-23T22:57:27.042Z,100490.22
2023-06-23T22:59:54.589Z,100494.41
2023-06-23T23:02:22.811Z,100492.41
2023-06-23T23:04:50.287Z,100477.47
2023-06-23T23:07:18.247Z,100494.25
2023-06-23T23:09:45.949Z,100493.31
2023-06-23T23:12:13.838Z,100496.84
2023-06-23T23:14:41.627Z,100492.75
2023-06-23T23:17:09.610Z,100505.19
2023-06-23T23:19:37.386Z,100505.38
2023-06-23T23:22:06.883Z,100498.47
2023-06-23T23:24:34.510Z,100530.66
2023-06-23T23:27:02.372Z,100513.84
2023-06-23T23:29:30.655Z,100520.25
2023-06-23T23:32:02.587Z,100511.53
2023-06-23T23:34:33.345Z,100512.72
2023-06-23T23:37:10.531Z,100520.72
2023-06-23T23:39:38.059Z,100520.25
2023-06-23T23:42:06.250Z,100514.34
2023-06-23T23:44:34.096Z,100509.09
2023-06-23T23:47:01.928Z,100502.38
2023-06-23T23:49:29.502Z,100512.56
2023-06-23T23:51:58.005Z,100509.47
2023-06-23T23:54:25.522Z,100516.63
2023-06-23T23:56:53.456Z,100516.63
2023-06-23T23:59:21.002Z,100512.38
